sensor_id;sensor_type;location;lat;lon;timestamp;temperature;humidity
7516;DHT22;3799;47.184;8.538;2023-10-08T00:01:39;14.20;55.30
7516;DHT22;3799;47.184;8.538;2023-10-08T00:04:12;14.40;55.40
7516;DHT22;3799;47.184;8.538;2023-10-08T00:06:46;14.60;55.90
7516;DHT22;3799;47.184;8.538;2023-10-08T00:09:36;14.70;55.90
7516;DHT22;3799;47.184;8.538;2023-10-08T00:12:14;14.30;55.70
7516;DHT22;3799;47.184;8.538;2023-10-08T00:14:47;14.40;56.00
7516;DHT22;3799;47.184;8.538;2023-10-08T00:17:40;14.40;56.30
7516;DHT22;3799;47.184;8.538;2023-10-08T00:20:11;14.40;56.60
7516;DHT22;3799;47.184;8.538;2023-10-08T00:22:52;14.30;57.00
7516;DHT22;3799;47.184;8.538;2023-10-08T00:25:27;14.40;57.00
7516;DHT22;3799;47.184;8.538;2023-10-08T00:27:57;14.10;57.00
7516;DHT22;3799;47.184;8.538;2023-10-08T00:30:25;14.50;57.60
7516;DHT22;3799;47.184;8.538;2023-10-08T00:32:58;14.10;57.60
7516;DHT22;3799;47.184;8.538;2023-10-08T00:35:55;14.00;57.60
7516;DHT22;3799;47.184;8.538;2023-10-08T00:39:00;14.00;57.90
7516;DHT22;3799;47.184;8.538;2023-10-08T00:41:29;14.00;58.40
7516;DHT22;3799;47.184;8.538;2023-10-08T00:47:24;14.00;59.30
7516;DHT22;3799;47.184;8.538;2023-10-08T00:50:17;14.10;59.80
7516;DHT22;3799;47.184;8.538;2023-10-08T00:53:15;14.10;60.80
7516;DHT22;3799;47.184;8.538;2023-10-08T00:56:04;13.90;61.70
7516;DHT22;3799;47.184;8.538;2023-10-08T00:58:43;13.90;62.30
7516;DHT22;3799;47.184;8.538;2023-10-08T01:04:22;14.00;64.00
7516;DHT22;3799;47.184;8.538;2023-10-08T01:07:02;14.10;65.10
7516;DHT22;3799;47.184;8.538;2023-10-08T01:10:01;14.00;66.40
7516;DHT22;3799;47.184;8.538;2023-10-08T01:12:53;14.00;68.00
7516;DHT22;3799;47.184;8.538;2023-10-08T01:16:06;14.00;70.00
7516;DHT22;3799;47.184;8.538;2023-10-08T01:18:53;14.10;73.20
7516;DHT22;3799;47.184;8.538;2023-10-08T01:21:34;13.80;74.60
7516;DHT22;3799;47.184;8.538;2023-10-08T01:24:28;13.90;76.50
7516;DHT22;3799;47.184;8.538;2023-10-08T01:27:00;14.00;78.40
7516;DHT22;3799;47.184;8.538;2023-10-08T01:29:37;13.90;79.60
7516;DHT22;3799;47.184;8.538;2023-10-08T01:32:05;13.90;81.20
7516;DHT22;3799;47.184;8.538;2023-10-08T01:34:44;13.80;82.70
7516;DHT22;3799;47.184;8.538;2023-10-08T01:37:18;13.70;85.10
7516;DHT22;3799;47.184;8.538;2023-10-08T01:39:54;13.60;87.00
7516;DHT22;3799;47.184;8.538;2023-10-08T01:42:46;13.80;89.70
7516;DHT22;3799;47.184;8.538;2023-10-08T01:51:28;13.70;92.30
7516;DHT22;3799;47.184;8.538;2023-10-08T01:54:15;13.80;93.00
7516;DHT22;3799;47.184;8.538;2023-10-08T01:56:49;13.80;93.30
7516;DHT22;3799;47.184;8.538;2023-10-08T01:59:45;13.70;93.10
7516;DHT22;3799;47.184;8.538;2023-10-08T02:02:39;13.80;92.60
7516;DHT22;3799;47.184;8.538;2023-10-08T02:05:24;13.80;92.60
7516;DHT22;3799;47.184;8.538;2023-10-08T02:08:15;13.60;92.90
7516;DHT22;3799;47.184;8.538;2023-10-08T02:10:47;13.80;93.90
7516;DHT22;3799;47.184;8.538;2023-10-08T02:13:27;13.50;94.60
7516;DHT22;3799;47.184;8.538;2023-10-08T02:16:11;13.60;95.50
7516;DHT22;3799;47.184;8.538;2023-10-08T02:18:48;13.60;96.40
7516;DHT22;3799;47.184;8.538;2023-10-08T02:21:27;13.60;97.00
7516;DHT22;3799;47.184;8.538;2023-10-08T02:24:25;13.60;97.10
7516;DHT22;3799;47.184;8.538;2023-10-08T02:27:09;13.40;96.60
7516;DHT22;3799;47.184;8.538;2023-10-08T02:32:35;13.30;97.00
7516;DHT22;3799;47.184;8.538;2023-10-08T02:35:07;13.70;97.40
7516;DHT22;3799;47.184;8.538;2023-10-08T02:37:57;13.70;97.50
7516;DHT22;3799;47.184;8.538;2023-10-08T02:40:33;13.60;97.50
7516;DHT22;3799;47.184;8.538;2023-10-08T02:43:17;13.50;97.60
7516;DHT22;3799;47.184;8.538;2023-10-08T02:46:04;13.60;97.80
7516;DHT22;3799;47.184;8.538;2023-10-08T02:48:57;13.70;98.10
7516;DHT22;3799;47.184;8.538;2023-10-08T02:51:28;13.50;98.20
7516;DHT22;3799;47.184;8.538;2023-10-08T02:53:56;13.30;98.30
7516;DHT22;3799;47.184;8.538;2023-10-08T02:56:34;13.70;98.70
7516;DHT22;3799;47.184;8.538;2023-10-08T02:59:04;13.30;99.00
7516;DHT22;3799;47.184;8.538;2023-10-08T03:01:45;13.30;99.40
7516;DHT22;3799;47.184;8.538;2023-10-08T03:04:42;13.30;99.90
7516;DHT22;3799;47.184;8.538;2023-10-08T03:07:19;13.30;99.90
7516;DHT22;3799;47.184;8.538;2023-10-08T03:09:55;13.40;99.90
7516;DHT22;3799;47.184;8.538;2023-10-08T03:12:36;13.20;99.90
7516;DHT22;3799;47.184;8.538;2023-10-08T03:15:42;13.40;99.90
7516;DHT22;3799;47.184;8.538;2023-10-08T03:18:28;13.40;99.90
7516;DHT22;3799;47.184;8.538;2023-10-08T03:21:38;13.30;99.90
7516;DHT22;3799;47.184;8.538;2023-10-08T03:24:08;13.20;99.90
7516;DHT22;3799;47.184;8.538;2023-10-08T03:26:59;13.50;99.90
7516;DHT22;3799;47.184;8.538;2023-10-08T03:29:47;13.50;99.90
7516;DHT22;3799;47.184;8.538;2023-10-08T03:32:18;13.40;99.90
7516;DHT22;3799;47.184;8.538;2023-10-08T03:34:49;13.20;99.90
7516;DHT22;3799;47.184;8.538;2023-10-08T03:37:24;13.20;99.90
7516;DHT22;3799;47.184;8.538;2023-10-08T03:40:12;13.30;99.90
7516;DHT22;3799;47.184;8.538;2023-10-08T03:43:14;13.40;99.90
7516;DHT22;3799;47.184;8.538;2023-10-08T03:46:03;13.20;99.90
7516;DHT22;3799;47.184;8.538;2023-10-08T03:48:53;13.20;99.90
7516;DHT22;3799;47.184;8.538;2023-10-08T03:51:30;13.20;99.90
7516;DHT22;3799;47.184;8.538;2023-10-08T03:54:06;13.20;99.90
7516;DHT22;3799;47.184;8.538;2023-10-08T03:56:54;13.20;99.90
7516;DHT22;3799;47.184;8.538;2023-10-08T03:59:35;13.20;99.90
7516;DHT22;3799;47.184;8.538;2023-10-08T04:02:21;13.40;99.90
7516;DHT22;3799;47.184;8.538;2023-10-08T04:05:25;13.30;99.90
7516;DHT22;3799;47.184;8.538;2023-10-08T04:08:07;13.10;99.90
7516;DHT22;3799;47.184;8.538;2023-10-08T04:11:16;13.20;99.90
7516;DHT22;3799;47.184;8.538;2023-10-08T04:14:02;13.40;99.90
7516;DHT22;3799;47.184;8.538;2023-10-08T04:16:32;13.20;99.90
7516;DHT22;3799;47.184;8.538;2023-10-08T04:19:13;13.10;99.90
7516;DHT22;3799;47.184;8.538;2023-10-08T04:22:13;13.10;99.90
7516;DHT22;3799;47.184;8.538;2023-10-08T04:24:45;13.10;99.90
7516;DHT22;3799;47.184;8.538;2023-10-08T04:27:16;13.30;99.90
7516;DHT22;3799;47.184;8.538;2023-10-08T04:29:52;12.90;99.90
7516;DHT22;3799;47.184;8.538;2023-10-08T04:32:39;13.20;99.90
7516;DHT22;3799;47.184;8.538;2023-10-08T04:35:47;13.00;99.90
7516;DHT22;3799;47.184;8.538;2023-10-08T04:38:50;13.10;99.90
7516;DHT22;3799;47.184;8.538;2023-10-08T04:41:24;13.10;99.90
7516;DHT22;3799;47.184;8.538;2023-10-08T04:44:04;13.00;99.90
7516;DHT22;3799;47.184;8.538;2023-10-08T04:49:56;12.90;99.90
7516;DHT22;3799;47.184;8.538;2023-10-08T04:52:40;13.10;99.90
7516;DHT22;3799;47.184;8.538;2023-10-08T04:55:51;12.80;99.90
7516;DHT22;3799;47.184;8.538;2023-10-08T04:58:29;12.70;99.90
7516;DHT22;3799;47.184;8.538;2023-10-08T05:01:21;12.70;99.90
7516;DHT22;3799;47.184;8.538;2023-10-08T05:03:56;12.60;99.90
7516;DHT22;3799;47.184;8.538;2023-10-08T05:06:29;12.80;99.90
7516;DHT22;3799;47.184;8.538;2023-10-08T05:09:09;12.90;99.90
7516;DHT22;3799;47.184;8.538;2023-10-08T05:12:05;12.70;99.90
7516;DHT22;3799;47.184;8.538;2023-10-08T05:14:51;12.80;99.90
7516;DHT22;3799;47.184;8.538;2023-10-08T05:17:55;12.80;99.90
7516;DHT22;3799;47.184;8.538;2023-10-08T05:20:40;12.90;99.90
7516;DHT22;3799;47.184;8.538;2023-10-08T05:23:12;12.80;99.90
7516;DHT22;3799;47.184;8.538;2023-10-08T05:25:56;13.00;99.90
7516;DHT22;3799;47.184;8.538;2023-10-08T05:28:31;12.80;99.90
7516;DHT22;3799;47.184;8.538;2023-10-08T05:31:09;12.80;99.90
7516;DHT22;3799;47.184;8.538;2023-10-08T05:33:51;12.80;99.90
7516;DHT22;3799;47.184;8.538;2023-10-08T05:36:42;12.70;99.90
7516;DHT22;3799;47.184;8.538;2023-10-08T05:40:03;12.70;99.90
7516;DHT22;3799;47.184;8.538;2023-10-08T05:46:20;12.50;99.90
7516;DHT22;3799;47.184;8.538;2023-10-08T05:49:08;12.70;99.90
7516;DHT22;3799;47.184;8.538;2023-10-08T05:51:52;12.50;99.90
7516;DHT22;3799;47.184;8.538;2023-10-08T05:54:36;12.50;99.90
7516;DHT22;3799;47.184;8.538;2023-10-08T05:57:20;12.80;99.90
7516;DHT22;3799;47.184;8.538;2023-10-08T06:00:14;12.60;99.90
7516;DHT22;3799;47.184;8.538;2023-10-08T06:02:50;12.40;99.90
7516;DHT22;3799;47.184;8.538;2023-10-08T06:05:37;12.80;99.90
7516;DHT22;3799;47.184;8.538;2023-10-08T06:08:25;12.70;99.90
7516;DHT22;3799;47.184;8.538;2023-10-08T06:11:48;12.80;99.90
7516;DHT22;3799;47.184;8.538;2023-10-08T06:14:21;12.60;99.90
7516;DHT22;3799;47.184;8.538;2023-10-08T06:17:12;12.60;99.90
7516;DHT22;3799;47.184;8.538;2023-10-08T06:20:02;12.70;99.90
7516;DHT22;3799;47.184;8.538;2023-10-08T06:25:59;12.80;99.90
7516;DHT22;3799;47.184;8.538;2023-10-08T06:28:45;12.70;99.90
7516;DHT22;3799;47.184;8.538;2023-10-08T06:31:31;12.90;99.90
7516;DHT22;3799;47.184;8.538;2023-10-08T06:34:10;12.90;99.90
7516;DHT22;3799;47.184;8.538;2023-10-08T06:37:00;13.10;99.90
7516;DHT22;3799;47.184;8.538;2023-10-08T06:39:48;13.10;99.90
7516;DHT22;3799;47.184;8.538;2023-10-08T06:42:16;13.10;99.90
7516;DHT22;3799;47.184;8.538;2023-10-08T06:44:49;13.20;99.90
7516;DHT22;3799;47.184;8.538;2023-10-08T06:47:34;13.10;99.90
7516;DHT22;3799;47.184;8.538;2023-10-08T06:50:09;13.20;99.90
7516;DHT22;3799;47.184;8.538;2023-10-08T06:52:50;13.20;99.90
7516;DHT22;3799;47.184;8.538;2023-10-08T06:55:49;13.30;99.90
7516;DHT22;3799;47.184;8.538;2023-10-08T06:58:33;13.40;99.90
7516;DHT22;3799;47.184;8.538;2023-10-08T07:01:02;13.60;99.90
7516;DHT22;3799;47.184;8.538;2023-10-08T07:03:35;13.50;99.90
7516;DHT22;3799;47.184;8.538;2023-10-08T07:06:17;13.90;99.90
7516;DHT22;3799;47.184;8.538;2023-10-08T07:08:59;13.90;99.90
7516;DHT22;3799;47.184;8.538;2023-10-08T07:11:36;13.90;99.90
7516;DHT22;3799;47.184;8.538;2023-10-08T07:14:10;13.90;99.90
7516;DHT22;3799;47.184;8.538;2023-10-08T07:16:55;13.80;99.90
7516;DHT22;3799;47.184;8.538;2023-10-08T07:20:13;13.90;99.90
7516;DHT22;3799;47.184;8.538;2023-10-08T07:23:25;14.00;99.90
7516;DHT22;3799;47.184;8.538;2023-10-08T07:25:54;14.00;99.90
7516;DHT22;3799;47.184;8.538;2023-10-08T07:29:13;14.30;99.90
7516;DHT22;3799;47.184;8.538;2023-10-08T07:32:02;14.10;99.90
7516;DHT22;3799;47.184;8.538;2023-10-08T07:34:38;14.20;99.90
7516;DHT22;3799;47.184;8.538;2023-10-08T07:37:22;14.40;99.90
7516;DHT22;3799;47.184;8.538;2023-10-08T07:39:55;14.50;99.90
7516;DHT22;3799;47.184;8.538;2023-10-08T07:42:42;14.60;99.90
7516;DHT22;3799;47.184;8.538;2023-10-08T07:45:11;14.50;99.90
7516;DHT22;3799;47.184;8.538;2023-10-08T07:48:08;14.70;99.90
7516;DHT22;3799;47.184;8.538;2023-10-08T07:51:03;14.80;99.90
7516;DHT22;3799;47.184;8.538;2023-10-08T07:53:53;14.90;99.90
7516;DHT22;3799;47.184;8.538;2023-10-08T07:56:28;15.20;99.90
7516;DHT22;3799;47.184;8.538;2023-10-08T07:59:07;15.20;99.90
7516;DHT22;3799;47.184;8.538;2023-10-08T08:01:45;15.30;99.90
7516;DHT22;3799;47.184;8.538;2023-10-08T08:04:26;15.50;99.90
7516;DHT22;3799;47.184;8.538;2023-10-08T08:07:03;15.60;99.90
7516;DHT22;3799;47.184;8.538;2023-10-08T08:09:32;15.70;99.90
7516;DHT22;3799;47.184;8.538;2023-10-08T08:12:06;15.60;99.90
7516;DHT22;3799;47.184;8.538;2023-10-08T08:14:55;16.10;99.90
7516;DHT22;3799;47.184;8.538;2023-10-08T08:18:07;15.80;99.90
7516;DHT22;3799;47.184;8.538;2023-10-08T08:21:15;16.10;99.90
7516;DHT22;3799;47.184;8.538;2023-10-08T08:24:05;16.50;99.90
7516;DHT22;3799;47.184;8.538;2023-10-08T08:26:53;16.40;99.90
7516;DHT22;3799;47.184;8.538;2023-10-08T08:29:55;16.60;99.90
7516;DHT22;3799;47.184;8.538;2023-10-08T08:32:37;16.70;99.90
7516;DHT22;3799;47.184;8.538;2023-10-08T08:35:12;16.90;99.90
7516;DHT22;3799;47.184;8.538;2023-10-08T08:38:01;17.10;99.90
7516;DHT22;3799;47.184;8.538;2023-10-08T08:40:36;17.10;99.90
7516;DHT22;3799;47.184;8.538;2023-10-08T08:43:36;17.00;99.90
7516;DHT22;3799;47.184;8.538;2023-10-08T08:46:27;17.30;99.90
7516;DHT22;3799;47.184;8.538;2023-10-08T08:49:08;17.50;99.90
7516;DHT22;3799;47.184;8.538;2023-10-08T08:52:09;17.60;99.90
7516;DHT22;3799;47.184;8.538;2023-10-08T08:54:42;18.00;99.90
7516;DHT22;3799;47.184;8.538;2023-10-08T08:57:10;18.00;99.90
7516;DHT22;3799;47.184;8.538;2023-10-08T09:00:16;18.00;99.90
7516;DHT22;3799;47.184;8.538;2023-10-08T09:02:52;18.10;99.90
7516;DHT22;3799;47.184;8.538;2023-10-08T09:05:27;18.10;99.90
7516;DHT22;3799;47.184;8.538;2023-10-08T09:08:14;18.40;99.90
7516;DHT22;3799;47.184;8.538;2023-10-08T09:11:00;18.70;99.90
7516;DHT22;3799;47.184;8.538;2023-10-08T09:13:40;18.70;99.90
7516;DHT22;3799;47.184;8.538;2023-10-08T09:16:16;18.80;99.90
7516;DHT22;3799;47.184;8.538;2023-10-08T09:18:47;18.70;99.60
7516;DHT22;3799;47.184;8.538;2023-10-08T09:21:25;19.00;99.30
7516;DHT22;3799;47.184;8.538;2023-10-08T09:24:34;18.90;98.70
7516;DHT22;3799;47.184;8.538;2023-10-08T09:27:09;19.20;98.90
7516;DHT22;3799;47.184;8.538;2023-10-08T09:30:11;19.30;98.30
7516;DHT22;3799;47.184;8.538;2023-10-08T09:33:01;19.20;97.80
7516;DHT22;3799;47.184;8.538;2023-10-08T09:35:42;19.20;98.00
7516;DHT22;3799;47.184;8.538;2023-10-08T09:38:16;19.40;98.40
7516;DHT22;3799;47.184;8.538;2023-10-08T09:41:02;19.70;98.60
7516;DHT22;3799;47.184;8.538;2023-10-08T09:43:53;19.70;98.40
7516;DHT22;3799;47.184;8.538;2023-10-08T09:46:57;19.60;98.30
7516;DHT22;3799;47.184;8.538;2023-10-08T09:53:12;19.90;98.30
7516;DHT22;3799;47.184;8.538;2023-10-08T09:56:14;20.10;98.20
7516;DHT22;3799;47.184;8.538;2023-10-08T09:59:49;20.10;97.90
7516;DHT22;3799;47.184;8.538;2023-10-08T10:03:10;20.40;97.80
7516;DHT22;3799;47.184;8.538;2023-10-08T10:06:17;20.40;97.50
7516;DHT22;3799;47.184;8.538;2023-10-08T10:13:27;20.70;96.90
7516;DHT22;3799;47.184;8.538;2023-10-08T10:23:46;21.00;95.00
7516;DHT22;3799;47.184;8.538;2023-10-08T10:30:58;21.30;94.90
7516;DHT22;3799;47.184;8.538;2023-10-08T10:34:26;21.50;93.00
7516;DHT22;3799;47.184;8.538;2023-10-08T10:37:55;21.70;91.00
7516;DHT22;3799;47.184;8.538;2023-10-08T10:41:09;21.90;90.10
7516;DHT22;3799;47.184;8.538;2023-10-08T12:49:15;29.50;45.30
7516;DHT22;3799;47.184;8.538;2023-10-08T12:52:17;29.70;45.10
7516;DHT22;3799;47.184;8.538;2023-10-08T12:55:42;29.90;44.50
7516;DHT22;3799;47.184;8.538;2023-10-08T12:58:38;30.10;43.80
7516;DHT22;3799;47.184;8.538;2023-10-08T13:01:43;30.20;43.40
7516;DHT22;3799;47.184;8.538;2023-10-08T13:04:21;30.20;43.00
7516;DHT22;3799;47.184;8.538;2023-10-08T13:07:39;30.40;42.80
7516;DHT22;3799;47.184;8.538;2023-10-08T13:10:46;30.50;41.90
7516;DHT22;3799;47.184;8.538;2023-10-08T13:13:50;30.70;41.90
7516;DHT22;3799;47.184;8.538;2023-10-08T13:16:28;31.00;41.10
7516;DHT22;3799;47.184;8.538;2023-10-08T13:19:22;31.20;41.00
7516;DHT22;3799;47.184;8.538;2023-10-08T13:22:12;31.30;40.70
7516;DHT22;3799;47.184;8.538;2023-10-08T13:24:57;31.30;40.20
7516;DHT22;3799;47.184;8.538;2023-10-08T13:27:30;31.40;40.10
7516;DHT22;3799;47.184;8.538;2023-10-08T13:30:07;31.70;39.70
7516;DHT22;3799;47.184;8.538;2023-10-08T13:32:37;31.80;39.30
7516;DHT22;3799;47.184;8.538;2023-10-08T13:35:20;31.80;39.30
7516;DHT22;3799;47.184;8.538;2023-10-08T13:38:53;31.90;40.00
7516;DHT22;3799;47.184;8.538;2023-10-08T13:42:08;32.10;40.10
7516;DHT22;3799;47.184;8.538;2023-10-08T13:45:13;32.50;39.80
7516;DHT22;3799;47.184;8.538;2023-10-08T13:47:59;32.80;38.50
7516;DHT22;3799;47.184;8.538;2023-10-08T13:50:40;32.80;38.10
7516;DHT22;3799;47.184;8.538;2023-10-08T13:53:22;32.80;38.30
7516;DHT22;3799;47.184;8.538;2023-10-08T13:56:12;33.00;37.40
7516;DHT22;3799;47.184;8.538;2023-10-08T13:58:55;33.10;36.50
7516;DHT22;3799;47.184;8.538;2023-10-08T14:08:07;33.30;34.90
7516;DHT22;3799;47.184;8.538;2023-10-08T14:11:23;33.20;34.90
7516;DHT22;3799;47.184;8.538;2023-10-08T14:14:23;33.10;34.70
7516;DHT22;3799;47.184;8.538;2023-10-08T14:17:23;32.90;34.90
7516;DHT22;3799;47.184;8.538;2023-10-08T14:20:27;32.70;35.10
7516;DHT22;3799;47.184;8.538;2023-10-08T14:23:09;32.60;35.60
7516;DHT22;3799;47.184;8.538;2023-10-08T14:25:54;32.60;36.10
7516;DHT22;3799;47.184;8.538;2023-10-08T14:28:43;32.70;36.50
7516;DHT22;3799;47.184;8.538;2023-10-08T14:31:38;32.90;36.50
7516;DHT22;3799;47.184;8.538;2023-10-08T14:34:12;33.10;37.00
7516;DHT22;3799;47.184;8.538;2023-10-08T14:37:05;33.00;37.50
7516;DHT22;3799;47.184;8.538;2023-10-08T14:40:17;32.80;36.40
7516;DHT22;3799;47.184;8.538;2023-10-08T14:43:26;32.90;36.70
7516;DHT22;3799;47.184;8.538;2023-10-08T14:46:33;33.30;36.00
7516;DHT22;3799;47.184;8.538;2023-10-08T14:49:23;33.60;36.40
7516;DHT22;3799;47.184;8.538;2023-10-08T14:52:00;33.60;36.00
7516;DHT22;3799;47.184;8.538;2023-10-08T14:55:29;33.40;35.50
7516;DHT22;3799;47.184;8.538;2023-10-08T14:58:06;33.30;36.10
7516;DHT22;3799;47.184;8.538;2023-10-08T15:00:56;33.60;36.90
7516;DHT22;3799;47.184;8.538;2023-10-08T15:03:49;34.10;36.60
7516;DHT22;3799;47.184;8.538;2023-10-08T15:06:37;34.40;36.20
7516;DHT22;3799;47.184;8.538;2023-10-08T15:09:13;34.50;35.90
7516;DHT22;3799;47.184;8.538;2023-10-08T15:12:13;34.50;35.90
7516;DHT22;3799;47.184;8.538;2023-10-08T15:15:18;34.60;35.90
7516;DHT22;3799;47.184;8.538;2023-10-08T15:18:21;34.50;36.10
7516;DHT22;3799;47.184;8.538;2023-10-08T15:21:24;34.40;36.40
7516;DHT22;3799;47.184;8.538;2023-10-08T15:24:57;34.30;37.00
7516;DHT22;3799;47.184;8.538;2023-10-08T15:27:49;34.00;37.20
7516;DHT22;3799;47.184;8.538;2023-10-08T15:30:36;33.50;38.20
7516;DHT22;3799;47.184;8.538;2023-10-08T15:33:59;33.10;39.10
7516;DHT22;3799;47.184;8.538;2023-10-08T15:37:23;32.40;40.60
7516;DHT22;3799;47.184;8.538;2023-10-08T15:40:44;31.90;40.90
7516;DHT22;3799;47.184;8.538;2023-10-08T15:43:34;31.60;41.80
7516;DHT22;3799;47.184;8.538;2023-10-08T15:50:31;31.30;42.90
7516;DHT22;3799;47.184;8.538;2023-10-08T15:53:29;30.80;43.70
7516;DHT22;3799;47.184;8.538;2023-10-08T15:56:25;30.20;44.70
7516;DHT22;3799;47.184;8.538;2023-10-08T15:59:43;29.60;45.60
7516;DHT22;3799;47.184;8.538;2023-10-08T16:02:51;29.10;46.80
7516;DHT22;3799;47.184;8.538;2023-10-08T16:05:38;29.00;47.80
7516;DHT22;3799;47.184;8.538;2023-10-08T16:08:32;28.90;48.20
7516;DHT22;3799;47.184;8.538;2023-10-08T16:15:30;28.60;48.60
7516;DHT22;3799;47.184;8.538;2023-10-08T16:18:25;28.30;48.90
7516;DHT22;3799;47.184;8.538;2023-10-08T16:21:16;28.00;49.60
7516;DHT22;3799;47.184;8.538;2023-10-08T16:23:58;27.70;49.70
7516;DHT22;3799;47.184;8.538;2023-10-08T16:29:52;27.00;50.40
7516;DHT22;3799;47.184;8.538;2023-10-08T16:32:26;26.60;50.80
7516;DHT22;3799;47.184;8.538;2023-10-08T16:35:34;26.20;51.00
7516;DHT22;3799;47.184;8.538;2023-10-08T16:38:40;25.80;51.40
7516;DHT22;3799;47.184;8.538;2023-10-08T16:41:52;25.40;51.80
7516;DHT22;3799;47.184;8.538;2023-10-08T16:44:32;24.90;52.10
7516;DHT22;3799;47.184;8.538;2023-10-08T16:47:20;24.60;52.30
7516;DHT22;3799;47.184;8.538;2023-10-08T16:49:52;24.20;52.50
7516;DHT22;3799;47.184;8.538;2023-10-08T16:52:33;23.80;52.60
7516;DHT22;3799;47.184;8.538;2023-10-08T16:55:11;23.30;53.20
7516;DHT22;3799;47.184;8.538;2023-10-08T16:58:17;22.90;53.60
7516;DHT22;3799;47.184;8.538;2023-10-08T17:01:38;22.50;54.00
7516;DHT22;3799;47.184;8.538;2023-10-08T17:04:31;22.10;53.90
7516;DHT22;3799;47.184;8.538;2023-10-08T17:07:14;21.80;54.10
7516;DHT22;3799;47.184;8.538;2023-10-08T17:10:01;21.50;54.30
7516;DHT22;3799;47.184;8.538;2023-10-08T17:12:46;21.20;54.40
7516;DHT22;3799;47.184;8.538;2023-10-08T17:15:37;21.00;54.60
7516;DHT22;3799;47.184;8.538;2023-10-08T17:18:21;20.80;54.70
7516;DHT22;3799;47.184;8.538;2023-10-08T17:24:34;20.50;54.50
7516;DHT22;3799;47.184;8.538;2023-10-08T17:27:18;20.40;54.30
7516;DHT22;3799;47.184;8.538;2023-10-08T17:29:54;20.30;54.50
7516;DHT22;3799;47.184;8.538;2023-10-08T17:32:30;20.20;54.70
7516;DHT22;3799;47.184;8.538;2023-10-08T17:35:19;20.10;54.90
7516;DHT22;3799;47.184;8.538;2023-10-08T17:37:55;20.10;55.10
7516;DHT22;3799;47.184;8.538;2023-10-08T17:40:46;19.80;55.10
7516;DHT22;3799;47.184;8.538;2023-10-08T17:43:15;19.90;55.30
7516;DHT22;3799;47.184;8.538;2023-10-08T17:45:59;19.90;55.20
7516;DHT22;3799;47.184;8.538;2023-10-08T17:48:34;19.80;55.20
7516;DHT22;3799;47.184;8.538;2023-10-08T17:51:09;19.80;55.40
7516;DHT22;3799;47.184;8.538;2023-10-08T17:53:48;19.70;55.60
7516;DHT22;3799;47.184;8.538;2023-10-08T17:56:21;19.80;55.60
7516;DHT22;3799;47.184;8.538;2023-10-08T17:58:54;19.60;55.70
7516;DHT22;3799;47.184;8.538;2023-10-08T18:01:46;19.70;56.00
7516;DHT22;3799;47.184;8.538;2023-10-08T18:04:30;19.60;56.00
7516;DHT22;3799;47.184;8.538;2023-10-08T18:07:02;19.60;56.10
7516;DHT22;3799;47.184;8.538;2023-10-08T18:09:36;19.30;56.10
7516;DHT22;3799;47.184;8.538;2023-10-08T18:12:10;19.20;56.20
7516;DHT22;3799;47.184;8.538;2023-10-08T18:14:40;19.30;56.50
7516;DHT22;3799;47.184;8.538;2023-10-08T18:17:08;19.10;56.70
7516;DHT22;3799;47.184;8.538;2023-10-08T18:19:39;19.20;57.10
7516;DHT22;3799;47.184;8.538;2023-10-08T18:22:09;19.20;57.20
7516;DHT22;3799;47.184;8.538;2023-10-08T18:24:53;19.20;57.40
7516;DHT22;3799;47.184;8.538;2023-10-08T18:27:24;18.90;57.30
7516;DHT22;3799;47.184;8.538;2023-10-08T18:29:53;19.00;57.50
7516;DHT22;3799;47.184;8.538;2023-10-08T18:32:35;19.00;57.60
7516;DHT22;3799;47.184;8.538;2023-10-08T18:35:06;19.20;58.00
7516;DHT22;3799;47.184;8.538;2023-10-08T18:37:45;18.70;57.90
7516;DHT22;3799;47.184;8.538;2023-10-08T18:40:38;19.10;58.20
7516;DHT22;3799;47.184;8.538;2023-10-08T18:43:09;19.00;58.50
7516;DHT22;3799;47.184;8.538;2023-10-08T18:46:01;18.70;58.50
7516;DHT22;3799;47.184;8.538;2023-10-08T18:48:30;19.00;59.00
7516;DHT22;3799;47.184;8.538;2023-10-08T18:51:27;19.00;59.20
7516;DHT22;3799;47.184;8.538;2023-10-08T18:54:20;18.60;59.30
7516;DHT22;3799;47.184;8.538;2023-10-08T18:57:21;18.80;59.50
7516;DHT22;3799;47.184;8.538;2023-10-08T19:00:11;18.80;59.90
7516;DHT22;3799;47.184;8.538;2023-10-08T19:02:56;18.90;59.80
7516;DHT22;3799;47.184;8.538;2023-10-08T19:05:52;18.90;59.70
7516;DHT22;3799;47.184;8.538;2023-10-08T19:08:38;18.70;59.70
7516;DHT22;3799;47.184;8.538;2023-10-08T19:11:11;18.60;59.90
7516;DHT22;3799;47.184;8.538;2023-10-08T19:13:54;18.50;60.00
7516;DHT22;3799;47.184;8.538;2023-10-08T19:16:37;18.50;60.50
7516;DHT22;3799;47.184;8.538;2023-10-08T19:19:41;18.50;61.40
7516;DHT22;3799;47.184;8.538;2023-10-08T19:22:18;18.40;62.40
7516;DHT22;3799;47.184;8.538;2023-10-08T19:24:48;18.40;63.10
7516;DHT22;3799;47.184;8.538;2023-10-08T19:27:57;18.30;63.40
7516;DHT22;3799;47.184;8.538;2023-10-08T19:30:42;18.30;64.00
7516;DHT22;3799;47.184;8.538;2023-10-08T19:33:34;18.30;65.20
7516;DHT22;3799;47.184;8.538;2023-10-08T19:36:18;18.10;66.00
7516;DHT22;3799;47.184;8.538;2023-10-08T19:38:49;18.10;67.10
7516;DHT22;3799;47.184;8.538;2023-10-08T19:41:27;18.40;68.30
7516;DHT22;3799;47.184;8.538;2023-10-08T19:44:06;18.40;69.40
7516;DHT22;3799;47.184;8.538;2023-10-08T19:47:01;18.10;70.00
7516;DHT22;3799;47.184;8.538;2023-10-08T19:49:46;18.10;71.40
7516;DHT22;3799;47.184;8.538;2023-10-08T19:52:17;18.10;72.70
7516;DHT22;3799;47.184;8.538;2023-10-08T19:55:06;18.20;74.40
7516;DHT22;3799;47.184;8.538;2023-10-08T19:57:42;18.20;75.70
7516;DHT22;3799;47.184;8.538;2023-10-08T20:00:26;18.20;77.00
7516;DHT22;3799;47.184;8.538;2023-10-08T20:03:18;18.20;78.20
7516;DHT22;3799;47.184;8.538;2023-10-08T20:05:47;18.00;79.10
7516;DHT22;3799;47.184;8.538;2023-10-08T20:08:26;18.00;80.50
7516;DHT22;3799;47.184;8.538;2023-10-08T20:11:25;18.10;82.20
7516;DHT22;3799;47.184;8.538;2023-10-08T20:14:06;17.80;83.40
7516;DHT22;3799;47.184;8.538;2023-10-08T20:16:42;17.90;83.90
7516;DHT22;3799;47.184;8.538;2023-10-08T20:19:22;17.90;84.60
7516;DHT22;3799;47.184;8.538;2023-10-08T20:22:11;17.80;84.80
7516;DHT22;3799;47.184;8.538;2023-10-08T20:25:02;17.90;85.00
7516;DHT22;3799;47.184;8.538;2023-10-08T20:27:39;17.60;84.70
7516;DHT22;3799;47.184;8.538;2023-10-08T20:30:14;17.60;84.40
7516;DHT22;3799;47.184;8.538;2023-10-08T20:36:18;17.60;85.30
7516;DHT22;3799;47.184;8.538;2023-10-08T20:39:06;17.70;86.60
7516;DHT22;3799;47.184;8.538;2023-10-08T20:41:57;17.60;87.40
7516;DHT22;3799;47.184;8.538;2023-10-08T20:44:53;17.60;87.90
7516;DHT22;3799;47.184;8.538;2023-10-08T20:47:48;17.50;87.70
7516;DHT22;3799;47.184;8.538;2023-10-08T20:50:50;17.40;87.30
7516;DHT22;3799;47.184;8.538;2023-10-08T20:53:36;17.60;87.10
7516;DHT22;3799;47.184;8.538;2023-10-08T20:56:25;17.30;86.30
7516;DHT22;3799;47.184;8.538;2023-10-08T20:59:29;17.60;87.50
7516;DHT22;3799;47.184;8.538;2023-10-08T21:01:57;17.40;87.50
7516;DHT22;3799;47.184;8.538;2023-10-08T21:04:43;17.40;87.50
7516;DHT22;3799;47.184;8.538;2023-10-08T21:07:37;17.40;88.30
7516;DHT22;3799;47.184;8.538;2023-10-08T21:13:27;17.40;88.20
7516;DHT22;3799;47.184;8.538;2023-10-08T21:16:01;17.30;87.80
7516;DHT22;3799;47.184;8.538;2023-10-08T21:18:34;17.40;87.60
7516;DHT22;3799;47.184;8.538;2023-10-08T21:21:21;17.50;88.00
7516;DHT22;3799;47.184;8.538;2023-10-08T21:23:54;17.30;88.10
7516;DHT22;3799;47.184;8.538;2023-10-08T21:26:47;17.30;88.70
7516;DHT22;3799;47.184;8.538;2023-10-08T21:29:30;17.50;89.50